sensor_id;sensor_type;location;lat;lon;timestamp;temperature;humidity
31379;DHT22;61664;48.112;11.662;2023-04-06T00:00:57;4.10;55.40
31379;DHT22;61664;48.112;11.662;2023-04-06T00:03:24;4.10;55.40
31379;DHT22;61664;48.112;11.662;2023-04-06T00:05:52;4.10;55.50
31379;DHT22;61664;48.112;11.662;2023-04-06T00:08:19;4.00;55.50
31379;DHT22;61664;48.112;11.662;2023-04-06T00:10:47;4.00;55.60
31379;DHT22;61664;48.112;11.662;2023-04-06T00:13:14;4.00;55.60
31379;DHT22;61664;48.112;11.662;2023-04-06T00:15:41;4.00;55.50
31379;DHT22;61664;48.112;11.662;2023-04-06T00:18:08;4.00;55.50
31379;DHT22;61664;48.112;11.662;2023-04-06T00:20:35;3.90;55.60
31379;DHT22;61664;48.112;11.662;2023-04-06T00:23:02;3.90;55.60
31379;DHT22;61664;48.112;11.662;2023-04-06T00:25:29;3.90;55.70
31379;DHT22;61664;48.112;11.662;2023-04-06T00:27:56;3.90;55.70
31379;DHT22;61664;48.112;11.662;2023-04-06T00:30:23;3.80;55.70
31379;DHT22;61664;48.112;11.662;2023-04-06T00:32:50;3.80;55.70
31379;DHT22;61664;48.112;11.662;2023-04-06T00:35:17;3.70;55.80
31379;DHT22;61664;48.112;11.662;2023-04-06T00:37:46;3.70;55.80
31379;DHT22;61664;48.112;11.662;2023-04-06T00:40:14;3.70;56.00
31379;DHT22;61664;48.112;11.662;2023-04-06T00:42:42;3.70;56.10
31379;DHT22;61664;48.112;11.662;2023-04-06T00:45:09;3.70;56.20
31379;DHT22;61664;48.112;11.662;2023-04-06T00:47:37;3.60;56.20
31379;DHT22;61664;48.112;11.662;2023-04-06T00:50:04;3.60;56.20
31379;DHT22;61664;48.112;11.662;2023-04-06T00:52:33;3.60;56.30
31379;DHT22;61664;48.112;11.662;2023-04-06T00:55:01;3.60;56.30
31379;DHT22;61664;48.112;11.662;2023-04-06T00:57:29;3.60;56.40
31379;DHT22;61664;48.112;11.662;2023-04-06T00:59:58;3.50;56.40
31379;DHT22;61664;48.112;11.662;2023-04-06T01:02:25;3.60;56.50
31379;DHT22;61664;48.112;11.662;2023-04-06T01:04:53;3.50;56.50
31379;DHT22;61664;48.112;11.662;2023-04-06T01:07:21;3.60;56.60
31379;DHT22;61664;48.112;11.662;2023-04-06T01:09:48;3.50;56.60
31379;DHT22;61664;48.112;11.662;2023-04-06T01:12:15;3.50;56.60
31379;DHT22;61664;48.112;11.662;2023-04-06T01:14:42;3.50;56.60
31379;DHT22;61664;48.112;11.662;2023-04-06T01:17:09;3.60;56.70
31379;DHT22;61664;48.112;11.662;2023-04-06T01:19:36;3.60;56.70
31379;DHT22;61664;48.112;11.662;2023-04-06T01:22:04;3.60;56.70
31379;DHT22;61664;48.112;11.662;2023-04-06T01:24:31;3.50;56.60
31379;DHT22;61664;48.112;11.662;2023-04-06T01:26:58;3.60;56.70
31379;DHT22;61664;48.112;11.662;2023-04-06T01:29:25;3.50;56.60
31379;DHT22;61664;48.112;11.662;2023-04-06T01:31:52;3.50;56.70
31379;DHT22;61664;48.112;11.662;2023-04-06T01:34:19;3.50;56.60
31379;DHT22;61664;48.112;11.662;2023-04-06T01:36:46;3.50;56.60
31379;DHT22;61664;48.112;11.662;2023-04-06T01:39:13;3.60;57.20
31379;DHT22;61664;48.112;11.662;2023-04-06T01:41:41;3.60;56.70
31379;DHT22;61664;48.112;11.662;2023-04-06T01:44:08;3.50;56.60
31379;DHT22;61664;48.112;11.662;2023-04-06T01:46:34;3.50;56.60
31379;DHT22;61664;48.112;11.662;2023-04-06T01:49:01;3.50;56.60
31379;DHT22;61664;48.112;11.662;2023-04-06T01:51:28;3.60;56.60
31379;DHT22;61664;48.112;11.662;2023-04-06T01:53:56;3.50;56.50
31379;DHT22;61664;48.112;11.662;2023-04-06T01:56:24;3.40;56.50
31379;DHT22;61664;48.112;11.662;2023-04-06T01:58:51;3.40;56.50
31379;DHT22;61664;48.112;11.662;2023-04-06T02:01:18;3.40;56.60
31379;DHT22;61664;48.112;11.662;2023-04-06T02:03:44;3.40;56.70
31379;DHT22;61664;48.112;11.662;2023-04-06T02:06:11;3.30;56.60
31379;DHT22;61664;48.112;11.662;2023-04-06T02:08:38;3.30;56.70
31379;DHT22;61664;48.112;11.662;2023-04-06T02:11:05;3.30;56.80
31379;DHT22;61664;48.112;11.662;2023-04-06T02:13:32;3.30;56.80
31379;DHT22;61664;48.112;11.662;2023-04-06T02:15:59;3.30;56.80
31379;DHT22;61664;48.112;11.662;2023-04-06T02:18:26;3.30;56.90
31379;DHT22;61664;48.112;11.662;2023-04-06T02:20:54;3.30;56.80
31379;DHT22;61664;48.112;11.662;2023-04-06T02:23:22;3.30;56.90
31379;DHT22;61664;48.112;11.662;2023-04-06T02:25:49;3.20;56.80
31379;DHT22;61664;48.112;11.662;2023-04-06T02:28:16;3.20;56.90
31379;DHT22;61664;48.112;11.662;2023-04-06T02:30:43;3.20;56.90
31379;DHT22;61664;48.112;11.662;2023-04-06T02:33:10;3.20;56.90
31379;DHT22;61664;48.112;11.662;2023-04-06T02:35:37;3.20;57.00
31379;DHT22;61664;48.112;11.662;2023-04-06T02:38:04;3.20;57.00
31379;DHT22;61664;48.112;11.662;2023-04-06T02:40:31;3.20;57.10
31379;DHT22;61664;48.112;11.662;2023-04-06T02:42:58;3.10;57.00
31379;DHT22;61664;48.112;11.662;2023-04-06T02:45:25;3.10;57.10
31379;DHT22;61664;48.112;11.662;2023-04-06T02:47:52;3.10;57.10
31379;DHT22;61664;48.112;11.662;2023-04-06T02:50:19;3.10;57.20
31379;DHT22;61664;48.112;11.662;2023-04-06T02:52:46;3.00;57.20
31379;DHT22;61664;48.112;11.662;2023-04-06T02:55:13;3.00;57.20
31379;DHT22;61664;48.112;11.662;2023-04-06T02:57:41;3.00;57.30
31379;DHT22;61664;48.112;11.662;2023-04-06T03:00:08;3.00;57.30
31379;DHT22;61664;48.112;11.662;2023-04-06T03:02:36;2.90;57.30
31379;DHT22;61664;48.112;11.662;2023-04-06T03:05:03;3.00;57.40
31379;DHT22;61664;48.112;11.662;2023-04-06T03:07:30;3.00;57.40
31379;DHT22;61664;48.112;11.662;2023-04-06T03:09:57;2.90;57.30
31379;DHT22;61664;48.112;11.662;2023-04-06T03:12:24;2.90;57.40
31379;DHT22;61664;48.112;11.662;2023-04-06T03:14:51;3.00;57.40
31379;DHT22;61664;48.112;11.662;2023-04-06T03:17:18;3.00;57.50
31379;DHT22;61664;48.112;11.662;2023-04-06T03:19:44;2.90;57.50
31379;DHT22;61664;48.112;11.662;2023-04-06T03:22:11;2.90;57.50
31379;DHT22;61664;48.112;11.662;2023-04-06T03:24:38;2.90;57.50
31379;DHT22;61664;48.112;11.662;2023-04-06T03:27:05;2.90;57.60
31379;DHT22;61664;48.112;11.662;2023-04-06T03:29:32;2.90;57.60
31379;DHT22;61664;48.112;11.662;2023-04-06T03:31:59;2.80;57.60
31379;DHT22;61664;48.112;11.662;2023-04-06T03:34:26;2.80;57.70
31379;DHT22;61664;48.112;11.662;2023-04-06T03:36:53;2.80;57.70
31379;DHT22;61664;48.112;11.662;2023-04-06T03:39:35;2.80;57.70
31379;DHT22;61664;48.112;11.662;2023-04-06T03:42:02;2.80;57.80
31379;DHT22;61664;48.112;11.662;2023-04-06T03:44:29;2.80;57.80
31379;DHT22;61664;48.112;11.662;2023-04-06T03:46:56;2.70;57.70
31379;DHT22;61664;48.112;11.662;2023-04-06T03:49:23;2.70;57.80
31379;DHT22;61664;48.112;11.662;2023-04-06T03:51:50;2.70;57.90
31379;DHT22;61664;48.112;11.662;2023-04-06T03:54:17;2.70;58.00
31379;DHT22;61664;48.112;11.662;2023-04-06T03:56:44;2.70;58.10
31379;DHT22;61664;48.112;11.662;2023-04-06T03:59:11;2.60;58.00
31379;DHT22;61664;48.112;11.662;2023-04-06T04:01:38;2.60;58.00
31379;DHT22;61664;48.112;11.662;2023-04-06T04:04:06;2.60;58.00
31379;DHT22;61664;48.112;11.662;2023-04-06T04:06:32;2.60;58.00
31379;DHT22;61664;48.112;11.662;2023-04-06T04:08:59;2.60;58.00
31379;DHT22;61664;48.112;11.662;2023-04-06T04:11:26;2.50;58.20
31379;DHT22;61664;48.112;11.662;2023-04-06T04:13:53;2.50;58.20
31379;DHT22;61664;48.112;11.662;2023-04-06T04:16:20;2.40;58.40
31379;DHT22;61664;48.112;11.662;2023-04-06T04:18:47;2.40;58.50
31379;DHT22;61664;48.112;11.662;2023-04-06T04:21:15;2.50;58.60
31379;DHT22;61664;48.112;11.662;2023-04-06T04:23:42;2.50;58.70
31379;DHT22;61664;48.112;11.662;2023-04-06T04:26:09;2.50;59.20
31379;DHT22;61664;48.112;11.662;2023-04-06T04:28:36;2.50;58.70
31379;DHT22;61664;48.112;11.662;2023-04-06T04:31:03;2.60;58.70
31379;DHT22;61664;48.112;11.662;2023-04-06T04:33:30;2.50;58.70
31379;DHT22;61664;48.112;11.662;2023-04-06T04:35:57;2.60;58.80
31379;DHT22;61664;48.112;11.662;2023-04-06T04:38:24;2.60;58.70
31379;DHT22;61664;48.112;11.662;2023-04-06T04:40:51;2.60;59.10
31379;DHT22;61664;48.112;11.662;2023-04-06T04:43:18;2.60;58.60
31379;DHT22;61664;48.112;11.662;2023-04-06T04:45:45;2.70;58.60
31379;DHT22;61664;48.112;11.662;2023-04-06T04:48:12;2.60;58.40
31379;DHT22;61664;48.112;11.662;2023-04-06T04:50:39;2.60;58.40
31379;DHT22;61664;48.112;11.662;2023-04-06T04:53:06;2.50;58.40
31379;DHT22;61664;48.112;11.662;2023-04-06T04:55:33;2.60;58.50
31379;DHT22;61664;48.112;11.662;2023-04-06T04:58:00;2.60;58.50
31379;DHT22;61664;48.112;11.662;2023-04-06T05:00:27;2.50;58.50
31379;DHT22;61664;48.112;11.662;2023-04-06T05:02:54;2.50;58.60
31379;DHT22;61664;48.112;11.662;2023-04-06T05:05:21;2.50;58.70
31379;DHT22;61664;48.112;11.662;2023-04-06T05:07:48;2.50;58.70
31379;DHT22;61664;48.112;11.662;2023-04-06T05:10:15;2.50;58.70
31379;DHT22;61664;48.112;11.662;2023-04-06T05:12:42;2.50;58.80
31379;DHT22;61664;48.112;11.662;2023-04-06T05:15:09;2.50;58.90
31379;DHT22;61664;48.112;11.662;2023-04-06T05:17:36;2.50;59.10
31379;DHT22;61664;48.112;11.662;2023-04-06T05:20:06;2.50;59.30
31379;DHT22;61664;48.112;11.662;2023-04-06T05:22:34;2.50;59.20
31379;DHT22;61664;48.112;11.662;2023-04-06T05:25:02;2.50;59.80
31379;DHT22;61664;48.112;11.662;2023-04-06T05:27:29;2.50;59.40
31379;DHT22;61664;48.112;11.662;2023-04-06T05:29:56;2.60;59.60
31379;DHT22;61664;48.112;11.662;2023-04-06T05:32:23;2.60;59.70
31379;DHT22;61664;48.112;11.662;2023-04-06T05:34:51;2.70;59.90
31379;DHT22;61664;48.112;11.662;2023-04-06T05:37:18;2.80;60.00
31379;DHT22;61664;48.112;11.662;2023-04-06T05:39:45;2.80;60.00
31379;DHT22;61664;48.112;11.662;2023-04-06T05:42:12;2.90;60.10
31379;DHT22;61664;48.112;11.662;2023-04-06T05:44:39;3.00;60.00
31379;DHT22;61664;48.112;11.662;2023-04-06T05:47:06;3.10;60.10
31379;DHT22;61664;48.112;11.662;2023-04-06T05:49:34;3.10;59.80
31379;DHT22;61664;48.112;11.662;2023-04-06T05:52:01;3.20;59.80
31379;DHT22;61664;48.112;11.662;2023-04-06T05:54:28;3.20;59.70
31379;DHT22;61664;48.112;11.662;2023-04-06T05:56:55;3.30;59.80
31379;DHT22;61664;48.112;11.662;2023-04-06T05:59:22;3.30;59.70
31379;DHT22;61664;48.112;11.662;2023-04-06T06:01:50;3.40;59.80
31379;DHT22;61664;48.112;11.662;2023-04-06T06:04:17;3.40;59.80
31379;DHT22;61664;48.112;11.662;2023-04-06T06:06:44;3.50;59.80
31379;DHT22;61664;48.112;11.662;2023-04-06T06:09:11;3.50;59.80
31379;DHT22;61664;48.112;11.662;2023-04-06T06:11:38;3.60;59.80
31379;DHT22;61664;48.112;11.662;2023-04-06T06:14:05;3.60;59.90
31379;DHT22;61664;48.112;11.662;2023-04-06T06:16:32;3.70;60.00
31379;DHT22;61664;48.112;11.662;2023-04-06T06:18:59;3.80;60.00
31379;DHT22;61664;48.112;11.662;2023-04-06T06:21:26;3.90;60.00
31379;DHT22;61664;48.112;11.662;2023-04-06T06:23:53;4.00;60.00
31379;DHT22;61664;48.112;11.662;2023-04-06T06:26:21;4.10;60.10
31379;DHT22;61664;48.112;11.662;2023-04-06T06:28:48;4.10;60.10
31379;DHT22;61664;48.112;11.662;2023-04-06T06:31:15;4.30;60.10
31379;DHT22;61664;48.112;11.662;2023-04-06T06:33:43;4.30;59.90
31379;DHT22;61664;48.112;11.662;2023-04-06T06:36:10;4.50;60.00
31379;DHT22;61664;48.112;11.662;2023-04-06T06:38:37;4.50;59.80
31379;DHT22;61664;48.112;11.662;2023-04-06T06:41:04;4.70;60.20
31379;DHT22;61664;48.112;11.662;2023-04-06T06:43:31;4.70;59.60
31379;DHT22;61664;48.112;11.662;2023-04-06T06:45:58;4.80;59.70
31379;DHT22;61664;48.112;11.662;2023-04-06T06:48:25;4.90;59.60
31379;DHT22;61664;48.112;11.662;2023-04-06T06:50:52;5.00;59.60
31379;DHT22;61664;48.112;11.662;2023-04-06T06:53:20;5.10;59.50
31379;DHT22;61664;48.112;11.662;2023-04-06T06:55:47;5.10;59.50
31379;DHT22;61664;48.112;11.662;2023-04-06T06:58:17;5.20;59.50
31379;DHT22;61664;48.112;11.662;2023-04-06T07:00:46;5.30;59.50
31379;DHT22;61664;48.112;11.662;2023-04-06T07:03:13;5.50;59.70
31379;DHT22;61664;48.112;11.662;2023-04-06T07:05:46;5.60;59.90
31379;DHT22;61664;48.112;11.662;2023-04-06T07:08:16;5.80;59.40
31379;DHT22;61664;48.112;11.662;2023-04-06T07:10:43;6.00;59.70
31379;DHT22;61664;48.112;11.662;2023-04-06T07:13:10;6.20;59.70
31379;DHT22;61664;48.112;11.662;2023-04-06T07:15:37;6.30;59.40
31379;DHT22;61664;48.112;11.662;2023-04-06T07:18:04;6.50;59.40
31379;DHT22;61664;48.112;11.662;2023-04-06T07:20:31;6.60;59.40
31379;DHT22;61664;48.112;11.662;2023-04-06T07:22:58;6.80;59.60
31379;DHT22;61664;48.112;11.662;2023-04-06T07:25:25;6.90;59.50
31379;DHT22;61664;48.112;11.662;2023-04-06T07:27:52;7.10;59.50
31379;DHT22;61664;48.112;11.662;2023-04-06T07:30:19;7.40;59.70
31379;DHT22;61664;48.112;11.662;2023-04-06T07:32:48;7.60;59.40
31379;DHT22;61664;48.112;11.662;2023-04-06T07:35:15;7.80;59.30
31379;DHT22;61664;48.112;11.662;2023-04-06T07:37:43;8.10;59.00
31379;DHT22;61664;48.112;11.662;2023-04-06T07:40:10;8.30;58.80
31379;DHT22;61664;48.112;11.662;2023-04-06T07:42:37;8.50;58.60
31379;DHT22;61664;48.112;11.662;2023-04-06T07:45:04;8.80;58.00
31379;DHT22;61664;48.112;11.662;2023-04-06T07:47:31;8.90;57.60
31379;DHT22;61664;48.112;11.662;2023-04-06T07:49:58;9.10;57.20
31379;DHT22;61664;48.112;11.662;2023-04-06T07:52:25;9.30;56.60
31379;DHT22;61664;48.112;11.662;2023-04-06T07:54:52;9.40;56.40
31379;DHT22;61664;48.112;11.662;2023-04-06T07:57:19;9.60;56.40
31379;DHT22;61664;48.112;11.662;2023-04-06T07:59:46;9.70;56.20
31379;DHT22;61664;48.112;11.662;2023-04-06T08:02:13;9.90;55.90
31379;DHT22;61664;48.112;11.662;2023-04-06T08:04:40;10.10;56.00
31379;DHT22;61664;48.112;11.662;2023-04-06T08:07:10;10.40;55.40
31379;DHT22;61664;48.112;11.662;2023-04-06T08:09:37;10.80;54.90
31379;DHT22;61664;48.112;11.662;2023-04-06T08:12:04;11.30;54.10
31379;DHT22;61664;48.112;11.662;2023-04-06T08:14:31;11.80;53.70
31379;DHT22;61664;48.112;11.662;2023-04-06T08:16:58;12.30;52.40
31379;DHT22;61664;48.112;11.662;2023-04-06T08:19:25;12.80;52.00
31379;DHT22;61664;48.112;11.662;2023-04-06T08:21:51;13.30;51.80
31379;DHT22;61664;48.112;11.662;2023-04-06T08:24:19;13.80;51.00
31379;DHT22;61664;48.112;11.662;2023-04-06T08:26:46;14.30;49.90
31379;DHT22;61664;48.112;11.662;2023-04-06T08:29:13;14.70;48.60
31379;DHT22;61664;48.112;11.662;2023-04-06T08:31:39;14.80;47.80
31379;DHT22;61664;48.112;11.662;2023-04-06T08:34:07;14.90;47.40
31379;DHT22;61664;48.112;11.662;2023-04-06T08:36:37;15.00;47.40
31379;DHT22;61664;48.112;11.662;2023-04-06T08:39:03;15.20;48.00
31379;DHT22;61664;48.112;11.662;2023-04-06T08:41:31;15.50;47.40
31379;DHT22;61664;48.112;11.662;2023-04-06T08:44:02;15.80;47.10
31379;DHT22;61664;48.112;11.662;2023-04-06T08:46:30;16.00;45.10
31379;DHT22;61664;48.112;11.662;2023-04-06T08:48:59;16.30;47.10
31379;DHT22;61664;48.112;11.662;2023-04-06T08:51:28;16.60;46.90
31379;DHT22;61664;48.112;11.662;2023-04-06T08:53:58;17.00;46.70
31379;DHT22;61664;48.112;11.662;2023-04-06T08:56:27;17.40;45.90
31379;DHT22;61664;48.112;11.662;2023-04-06T08:58:55;17.70;45.60
31379;DHT22;61664;48.112;11.662;2023-04-06T09:01:26;18.00;45.50
31379;DHT22;61664;48.112;11.662;2023-04-06T09:03:58;18.40;43.80
31379;DHT22;61664;48.112;11.662;2023-04-06T09:06:34;18.80;42.00
31379;DHT22;61664;48.112;11.662;2023-04-06T09:09:03;19.20;48.10
31379;DHT22;61664;48.112;11.662;2023-04-06T09:11:50;19.50;45.40
31379;DHT22;61664;48.112;11.662;2023-04-06T09:14:36;19.90;41.60
31379;DHT22;61664;48.112;11.662;2023-04-06T09:17:05;20.10;39.70
31379;DHT22;61664;48.112;11.662;2023-04-06T09:19:32;20.30;42.70
31379;DHT22;61664;48.112;11.662;2023-04-06T09:22:06;20.50;42.40
31379;DHT22;61664;48.112;11.662;2023-04-06T09:24:51;20.80;39.00
31379;DHT22;61664;48.112;11.662;2023-04-06T09:27:36;21.10;38.20
31379;DHT22;61664;48.112;11.662;2023-04-06T09:30:09;21.40;38.50
31379;DHT22;61664;48.112;11.662;2023-04-06T09:32:51;21.80;39.50
31379;DHT22;61664;48.112;11.662;2023-04-06T09:35:20;22.20;38.10
31379;DHT22;61664;48.112;11.662;2023-04-06T09:37:49;22.40;40.00
31379;DHT22;61664;48.112;11.662;2023-04-06T09:40:17;22.60;39.30
31379;DHT22;61664;48.112;11.662;2023-04-06T09:42:47;22.60;38.50
31379;DHT22;61664;48.112;11.662;2023-04-06T09:45:15;22.50;38.60
31379;DHT22;61664;48.112;11.662;2023-04-06T09:47:44;22.30;38.20
31379;DHT22;61664;48.112;11.662;2023-04-06T09:50:13;22.10;37.80
31379;DHT22;61664;48.112;11.662;2023-04-06T09:55:29;21.90;39.40
31379;DHT22;61664;48.112;11.662;2023-04-06T09:58:04;22.00;36.40
31379;DHT22;61664;48.112;11.662;2023-04-06T10:00:47;22.50;40.10
31379;DHT22;61664;48.112;11.662;2023-04-06T10:06:23;23.00;36.20
31379;DHT22;61664;48.112;11.662;2023-04-06T10:08:54;23.00;37.30
31379;DHT22;61664;48.112;11.662;2023-04-06T10:11:22;23.00;38.30
31379;DHT22;61664;48.112;11.662;2023-04-06T10:13:50;22.40;37.30
31379;DHT22;61664;48.112;11.662;2023-04-06T10:16:17;22.00;37.50
31379;DHT22;61664;48.112;11.662;2023-04-06T10:18:48;21.70;37.90
31379;DHT22;61664;48.112;11.662;2023-04-06T10:21:24;21.40;36.80
31379;DHT22;61664;48.112;11.662;2023-04-06T10:24:02;21.30;36.20
31379;DHT22;61664;48.112;11.662;2023-04-06T10:26:37;21.30;35.70
31379;DHT22;61664;48.112;11.662;2023-04-06T10:29:04;21.40;39.40
31379;DHT22;61664;48.112;11.662;2023-04-06T10:31:32;21.60;39.00
31379;DHT22;61664;48.112;11.662;2023-04-06T10:34:02;21.60;37.80
31379;DHT22;61664;48.112;11.662;2023-04-06T10:36:34;21.50;35.30
31379;DHT22;61664;48.112;11.662;2023-04-06T10:39:03;21.20;34.60
31379;DHT22;61664;48.112;11.662;2023-04-06T10:41:42;20.80;35.60
31379;DHT22;61664;48.112;11.662;2023-04-06T10:44:22;20.30;32.60
31379;DHT22;61664;48.112;11.662;2023-04-06T10:46:55;19.80;34.10
31379;DHT22;61664;48.112;11.662;2023-04-06T10:49:27;19.40;34.60
31379;DHT22;61664;48.112;11.662;2023-04-06T10:51:55;19.00;36.00
31379;DHT22;61664;48.112;11.662;2023-04-06T10:54:24;18.60;37.40
31379;DHT22;61664;48.112;11.662;2023-04-06T10:56:53;18.30;37.80
31379;DHT22;61664;48.112;11.662;2023-04-06T10:59:22;18.10;38.60
31379;DHT22;61664;48.112;11.662;2023-04-06T11:01:51;17.90;38.60
31379;DHT22;61664;48.112;11.662;2023-04-06T11:04:20;17.90;39.20
31379;DHT22;61664;48.112;11.662;2023-04-06T11:06:48;17.80;39.50
31379;DHT22;61664;48.112;11.662;2023-04-06T11:09:24;17.90;39.30
31379;DHT22;61664;48.112;11.662;2023-04-06T11:11:52;17.90;36.90
31379;DHT22;61664;48.112;11.662;2023-04-06T11:14:20;17.90;39.50
31379;DHT22;61664;48.112;11.662;2023-04-06T11:16:48;17.90;39.30
31379;DHT22;61664;48.112;11.662;2023-04-06T11:19:18;17.80;39.00
31379;DHT22;61664;48.112;11.662;2023-04-06T11:21:47;17.80;39.00
31379;DHT22;61664;48.112;11.662;2023-04-06T11:24:23;17.70;38.20
31379;DHT22;61664;48.112;11.662;2023-04-06T11:26:58;17.60;36.40
31379;DHT22;61664;48.112;11.662;2023-04-06T11:29:29;17.40;35.60
31379;DHT22;61664;48.112;11.662;2023-04-06T11:34:41;17.00;36.80
31379;DHT22;61664;48.112;11.662;2023-04-06T11:37:10;16.80;35.60
31379;DHT22;61664;48.112;11.662;2023-04-06T11:39:50;16.70;38.80
31379;DHT22;61664;48.112;11.662;2023-04-06T11:42:26;16.60;35.80
31379;DHT22;61664;48.112;11.662;2023-04-06T11:44:56;16.50;37.50
31379;DHT22;61664;48.112;11.662;2023-04-06T11:47:32;16.40;39.90
31379;DHT22;61664;48.112;11.662;2023-04-06T11:50:07;16.40;38.20
31379;DHT22;61664;48.112;11.662;2023-04-06T11:52:41;16.40;37.70
31379;DHT22;61664;48.112;11.662;2023-04-06T11:55:14;16.40;39.50
31379;DHT22;61664;48.112;11.662;2023-04-06T11:57:43;16.40;37.60
31379;DHT22;61664;48.112;11.662;2023-04-06T12:00:12;16.30;39.30
31379;DHT22;61664;48.112;11.662;2023-04-06T12:02:39;16.20;39.20
31379;DHT22;61664;48.112;11.662;2023-04-06T12:05:11;16.00;39.40
31379;DHT22;61664;48.112;11.662;2023-04-06T12:07:39;15.90;39.50
31379;DHT22;61664;48.112;11.662;2023-04-06T12:10:07;15.80;39.40
31379;DHT22;61664;48.112;11.662;2023-04-06T12:12:34;15.70;40.10
31379;DHT22;61664;48.112;11.662;2023-04-06T12:15:01;15.50;39.80
31379;DHT22;61664;48.112;11.662;2023-04-06T12:17:29;15.50;40.40
31379;DHT22;61664;48.112;11.662;2023-04-06T12:19:56;15.50;40.90
31379;DHT22;61664;48.112;11.662;2023-04-06T12:22:35;15.50;41.20
31379;DHT22;61664;48.112;11.662;2023-04-06T12:25:03;15.70;41.40
31379;DHT22;61664;48.112;11.662;2023-04-06T12:27:30;15.70;40.40
31379;DHT22;61664;48.112;11.662;2023-04-06T12:29:57;15.80;40.20
31379;DHT22;61664;48.112;11.662;2023-04-06T12:32:24;15.80;40.20
31379;DHT22;61664;48.112;11.662;2023-04-06T12:34:52;15.80;40.50
31379;DHT22;61664;48.112;11.662;2023-04-06T12:37:19;15.80;40.70
31379;DHT22;61664;48.112;11.662;2023-04-06T12:39:47;15.90;41.40
31379;DHT22;61664;48.112;11.662;2023-04-06T12:42:14;16.10;41.40
31379;DHT22;61664;48.112;11.662;2023-04-06T12:44:41;16.10;41.20
31379;DHT22;61664;48.112;11.662;2023-04-06T12:47:09;16.20;41.00
31379;DHT22;61664;48.112;11.662;2023-04-06T12:49:37;16.30;40.50
31379;DHT22;61664;48.112;11.662;2023-04-06T12:52:04;16.30;39.80
31379;DHT22;61664;48.112;11.662;2023-04-06T12:54:31;16.30;39.40
31379;DHT22;61664;48.112;11.662;2023-04-06T12:56:58;16.20;39.40
31379;DHT22;61664;48.112;11.662;2023-04-06T12:59:25;16.00;39.50
31379;DHT22;61664;48.112;11.662;2023-04-06T13:01:52;16.00;39.70
31379;DHT22;61664;48.112;11.662;2023-04-06T13:04:19;15.90;39.90
31379;DHT22;61664;48.112;11.662;2023-04-06T13:06:46;15.90;39.30
31379;DHT22;61664;48.112;11.662;2023-04-06T13:09:13;15.80;39.50
31379;DHT22;61664;48.112;11.662;2023-04-06T13:11:40;15.80;39.80
31379;DHT22;61664;48.112;11.662;2023-04-06T13:14:08;15.70;40.10
31379;DHT22;61664;48.112;11.662;2023-04-06T13:16:35;15.80;40.90
31379;DHT22;61664;48.112;11.662;2023-04-06T13:19:02;16.00;42.00
31379;DHT22;61664;48.112;11.662;2023-04-06T13:21:29;16.20;42.90
31379;DHT22;61664;48.112;11.662;2023-04-06T13:23:57;16.50;42.80
31379;DHT22;61664;48.112;11.662;2023-04-06T13:26:23;16.80;42.10
31379;DHT22;61664;48.112;11.662;2023-04-06T13:28:51;17.10;41.60
31379;DHT22;61664;48.112;11.662;2023-04-06T13:31:18;17.20;41.00
31379;DHT22;61664;48.112;11.662;2023-04-06T13:33:45;17.30;40.50
31379;DHT22;61664;48.112;11.662;2023-04-06T13:36:12;17.40;40.40
31379;DHT22;61664;48.112;11.662;2023-04-06T13:38:43;17.50;40.40
31379;DHT22;61664;48.112;11.662;2023-04-06T13:41:18;17.60;39.80
31379;DHT22;61664;48.112;11.662;2023-04-06T13:43:47;17.60;37.40
31379;DHT22;61664;48.112;11.662;2023-04-06T13:46:14;17.70;40.80
31379;DHT22;61664;48.112;11.662;2023-04-06T13:48:42;17.80;40.60
31379;DHT22;61664;48.112;11.662;2023-04-06T13:51:13;18.00;39.50
31379;DHT22;61664;48.112;11.662;2023-04-06T13:53:41;17.90;39.20
31379;DHT22;61664;48.112;11.662;2023-04-06T13:56:08;17.90;38.80
31379;DHT22;61664;48.112;11.662;2023-04-06T13:58:36;17.80;38.30
31379;DHT22;61664;48.112;11.662;2023-04-06T14:01:07;17.70;38.20
31379;DHT22;61664;48.112;11.662;2023-04-06T14:03:37;17.60;38.70
31379;DHT22;61664;48.112;11.662;2023-04-06T14:06:10;17.60;39.40
31379;DHT22;61664;48.112;11.662;2023-04-06T14:08:46;17.60;37.60
31379;DHT22;61664;48.112;11.662;2023-04-06T14:11:13;17.60;39.20
31379;DHT22;61664;48.112;11.662;2023-04-06T14:13:40;17.60;39.90
31379;DHT22;61664;48.112;11.662;2023-04-06T14:16:08;17.80;41.00
31379;DHT22;61664;48.112;11.662;2023-04-06T14:18:36;18.20;42.10
31379;DHT22;61664;48.112;11.662;2023-04-06T14:21:03;18.70;41.00
31379;DHT22;61664;48.112;11.662;2023-04-06T14:23:31;19.00;40.10
31379;DHT22;61664;48.112;11.662;2023-04-06T14:26:06;19.10;39.00
31379;DHT22;61664;48.112;11.662;2023-04-06T14:28:35;19.10;35.20
31379;DHT22;61664;48.112;11.662;2023-04-06T14:31:10;19.00;37.00
31379;DHT22;61664;48.112;11.662;2023-04-06T14:33:40;18.80;34.50
31379;DHT22;61664;48.112;11.662;2023-04-06T14:36:08;18.60;36.80
31379;DHT22;61664;48.112;11.662;2023-04-06T14:38:37;18.30;37.40
31379;DHT22;61664;48.112;11.662;2023-04-06T14:41:04;18.30;39.90
31379;DHT22;61664;48.112;11.662;2023-04-06T14:43:31;18.60;42.40
31379;DHT22;61664;48.112;11.662;2023-04-06T14:46:02;19.10;44.20
31379;DHT22;61664;48.112;11.662;2023-04-06T14:48:29;19.90;41.70
31379;DHT22;61664;48.112;11.662;2023-04-06T14:50:56;20.60;42.90
31379;DHT22;61664;48.112;11.662;2023-04-06T14:53:24;21.10;40.90
31379;DHT22;61664;48.112;11.662;2023-04-06T14:55:51;21.50;39.80
31379;DHT22;61664;48.112;11.662;2023-04-06T14:58:19;21.80;39.60
31379;DHT22;61664;48.112;11.662;2023-04-06T15:00:47;22.10;39.50
31379;DHT22;61664;48.112;11.662;2023-04-06T15:03:15;22.40;38.90
31379;DHT22;61664;48.112;11.662;2023-04-06T15:05:42;22.60;37.80
31379;DHT22;61664;48.112;11.662;2023-04-06T15:08:09;22.70;37.60
31379;DHT22;61664;48.112;11.662;2023-04-06T15:10:36;22.90;37.50
31379;DHT22;61664;48.112;11.662;2023-04-06T15:13:03;23.00;37.60
31379;DHT22;61664;48.112;11.662;2023-04-06T15:15:30;23.10;36.50
31379;DHT22;61664;48.112;11.662;2023-04-06T15:17:57;23.00;35.20
31379;DHT22;61664;48.112;11.662;2023-04-06T15:20:24;22.80;34.20
31379;DHT22;61664;48.112;11.662;2023-04-06T15:22:51;22.40;34.50
31379;DHT22;61664;48.112;11.662;2023-04-06T15:25:18;22.10;34.70
31379;DHT22;61664;48.112;11.662;2023-04-06T15:27:45;21.80;34.40
31379;DHT22;61664;48.112;11.662;2023-04-06T15:30:12;21.50;34.20
31379;DHT22;61664;48.112;11.662;2023-04-06T15:32:39;21.20;34.00
31379;DHT22;61664;48.112;11.662;2023-04-06T15:35:12;20.90;34.50
31379;DHT22;61664;48.112;11.662;2023-04-06T15:37:39;20.60;33.30